Time;durP1;ratioP1;P1;durP2;ratioP2;P2;SDS_P1;SDS_P2;PMS_P1;PMS_P2;Temp;Humidity;BMP_temperature;BMP_pressure;BME280_temperature;BME280_humidity;BME280_pressure;Samples;Min_cycle;Max_cycle;Signal;HPM_P1;HPM_P2
2023/04/05 00:00:28;;;;;;;0.30;0.20;;;0.10;98.20;;;;;;5053383;28;20242;-74
2023/04/05 00:03:00;;;;;;;0.10;0.10;;;0.00;98.50;;;;;;5054068;28;20556;-72
2023/04/05 00:05:29;;;;;;;0.20;0.20;;;0.00;98.50;;;;;;5051499;28;20257;-71
2023/04/05 00:07:59;;;;;;;0.10;0.10;;;0.00;98.50;;;;;;5055396;28;20222;-72
2023/04/05 00:10:31;;;;;;;0.33;0.33;;;0.00;98.50;;;;;;5055073;28;20179;-74
2023/04/05 00:12:57;;;;;;;0.10;0.10;;;0.10;98.50;;;;;;5053662;28;20179;-72
2023/04/05 00:15:23;;;;;;;0.03;0.03;;;0.00;98.40;;;;;;5051814;28;20176;-71
2023/04/05 00:17:49;;;;;;;0.53;0.33;;;0.00;98.50;;;;;;5057716;28;20179;-72
2023/04/05 00:20:15;;;;;;;0.20;0.20;;;0.00;98.50;;;;;;5051701;28;20253;-71
2023/04/05 00:22:45;;;;;;;0.10;0.10;;;0.00;98.50;;;;;;5056421;28;20191;-71
2023/04/05 00:25:11;;;;;;;0.10;0.10;;;0.00;98.50;;;;;;5053162;28;20179;-71
2023/04/05 00:27:37;;;;;;;0.37;0.17;;;0.00;98.50;;;;;;5046622;28;20341;-71
2023/04/05 00:30:04;;;;;;;0.20;0.20;;;0.10;98.50;;;;;;5050336;28;20275;-73
2023/04/05 00:32:29;;;;;;;0.10;0.10;;;0.10;98.50;;;;;;5053671;28;20653;-71
2023/04/05 00:34:55;;;;;;;0.10;0.10;;;0.10;98.50;;;;;;5050964;28;20179;-71
2023/04/05 00:37:21;;;;;;;0.20;0.20;;;0.10;98.50;;;;;;5053627;28;20732;-72
2023/04/05 00:39:47;;;;;;;0.27;0.27;;;0.10;98.50;;;;;;5052412;28;20184;-72
2023/04/05 00:42:13;;;;;;;0.30;0.30;;;0.10;98.20;;;;;;5047472;28;20248;-72
2023/04/05 00:44:38;;;;;;;0.10;0.10;;;0.10;98.00;;;;;;5047106;28;20208;-70
2023/04/05 00:47:06;;;;;;;0.20;0.20;;;0.10;97.90;;;;;;5047469;28;20211;-70
2023/04/05 00:49:33;;;;;;;0.10;0.10;;;0.10;97.90;;;;;;5048654;28;20171;-72
2023/04/05 00:51:59;;;;;;;0.30;0.30;;;0.10;97.70;;;;;;5051078;28;20179;-73
2023/04/05 00:54:27;;;;;;;0.10;0.10;;;0.10;97.70;;;;;;5052443;28;20184;-72
2023/04/05 00:56:54;;;;;;;0.10;0.10;;;0.10;97.60;;;;;;5054249;28;20270;-72
2023/04/05 00:59:20;;;;;;;0.20;0.20;;;0.10;97.40;;;;;;5055385;28;20245;-73
2023/04/05 01:01:53;;;;;;;0.10;0.10;;;0.10;97.40;;;;;;5057513;28;20190;-73
2023/04/05 01:04:29;;;;;;;0.30;0.10;;;0.20;97.30;;;;;;5058981;28;20187;-72
2023/04/05 01:07:24;;;;;;;0.10;0.10;;;0.10;97.20;;;;;;5055918;28;21876;-72
2023/04/05 01:09:54;;;;;;;0.10;0.10;;;0.10;97.30;;;;;;5055936;28;20184;-72
2023/04/05 01:12:22;;;;;;;0.10;0.10;;;0.10;97.20;;;;;;5059408;28;20171;-71
2023/04/05 01:14:53;;;;;;;0.10;0.10;;;0.10;96.80;;;;;;5063450;28;20171;-72
2023/04/05 01:17:21;;;;;;;0.00;0.00;;;0.10;96.80;;;;;;5055781;28;20187;-73
2023/04/05 01:19:53;;;;;;;0.17;0.17;;;0.10;96.80;;;;;;5058959;28;20251;-73
2023/04/05 01:22:42;;;;;;;0.10;0.10;;;0.10;96.70;;;;;;5052621;28;20732;-72
2023/04/05 01:25:29;;;;;;;0.10;0.10;;;0.10;96.80;;;;;;5058519;28;20191;-72
2023/04/05 01:27:58;;;;;;;0.10;0.10;;;0.10;96.60;;;;;;5054424;28;20215;-72
2023/04/05 01:30:31;;;;;;;0.20;0.20;;;0.10;96.60;;;;;;5054973;28;20179;-71
2023/04/05 01:33:28;;;;;;;0.10;0.10;;;0.20;96.50;;;;;;5056501;28;20188;-73
2023/04/05 01:36:00;;;;;;;0.10;0.10;;;0.10;96.40;;;;;;5059710;28;20228;-71
2023/04/05 01:38:28;;;;;;;0.00;0.00;;;0.10;96.30;;;;;;5051353;28;20172;-72
2023/04/05 01:40:54;;;;;;;0.10;0.10;;;0.20;96.40;;;;;;5048369;28;20656;-71
2023/04/05 01:43:19;;;;;;;0.20;0.20;;;0.10;96.50;;;;;;5055196;28;20618;-74
2023/04/05 01:45:46;;;;;;;0.10;0.10;;;0.20;96.50;;;;;;5056152;28;20214;-72
2023/04/05 01:48:13;;;;;;;0.10;0.10;;;0.20;96.40;;;;;;5053908;28;20212;-72
2023/04/05 01:50:38;;;;;;;0.17;0.17;;;0.20;96.20;;;;;;5051709;28;20193;-72
2023/04/05 01:53:06;;;;;;;0.10;0.10;;;0.30;96.20;;;;;;5057610;28;20180;-72
2023/04/05 01:55:31;;;;;;;0.10;0.10;;;0.20;95.90;;;;;;5052963;28;20180;-72
2023/04/05 01:57:57;;;;;;;0.00;0.00;;;0.20;95.90;;;;;;5052583;28;20182;-73
2023/04/05 02:00:23;;;;;;;0.10;0.10;;;0.10;96.10;;;;;;5055982;28;20194;-72
2023/04/05 02:02:49;;;;;;;0.10;0.10;;;0.10;96.40;;;;;;5057245;28;20184;-73
2023/04/05 02:05:15;;;;;;;0.20;0.20;;;0.10;96.50;;;;;;5054911;28;20185;-73
2023/04/05 02:07:40;;;;;;;0.20;0.20;;;0.10;96.40;;;;;;5054863;28;20229;-72
2023/04/05 02:10:07;;;;;;;0.83;0.10;;;0.10;96.50;;;;;;5050405;28;20562;-72
2023/04/05 02:12:32;;;;;;;0.10;0.10;;;0.10;96.60;;;;;;5051631;28;20180;-72
2023/04/05 02:14:58;;;;;;;0.10;0.10;;;;;;;;;;5057641;28;20218;-72
2023/04/05 02:17:24;;;;;;;0.10;0.10;;;0.20;96.60;;;;;;5050245;28;20184;-73
2023/04/05 02:19:51;;;;;;;0.10;0.10;;;0.20;96.70;;;;;;5054484;28;20665;-73
2023/04/05 02:22:17;;;;;;;0.30;0.30;;;0.20;96.70;;;;;;5052924;28;20187;-74
2023/04/05 02:24:44;;;;;;;0.10;0.10;;;0.20;96.60;;;;;;5050066;28;20337;-73
2023/04/05 02:27:10;;;;;;;0.20;0.20;;;0.30;96.50;;;;;;5055011;28;20208;-73
2023/04/05 02:29:35;;;;;;;0.03;0.03;;;0.20;96.60;;;;;;5052670;28;20180;-74
2023/04/05 02:32:01;;;;;;;0.10;0.10;;;0.20;96.70;;;;;;5048083;28;20310;-72
2023/04/05 02:34:27;;;;;;;0.10;0.10;;;0.30;96.70;;;;;;5054897;28;20182;-72
2023/04/05 02:36:53;;;;;;;0.00;0.00;;;0.30;96.50;;;;;;5052661;28;20576;-71
2023/04/05 02:39:19;;;;;;;0.03;0.03;;;0.30;96.30;;;;;;5051901;28;20692;-71
2023/04/05 02:41:45;;;;;;;0.10;0.10;;;0.30;96.30;;;;;;5053322;28;20179;-71
2023/04/05 02:44:12;;;;;;;0.10;0.10;;;0.20;96.40;;;;;;5051113;28;20202;-71
2023/04/05 02:46:37;;;;;;;0.10;0.10;;;0.30;96.50;;;;;;5053959;28;20636;-70
2023/04/05 02:49:03;;;;;;;0.10;0.10;;;0.30;96.60;;;;;;5052111;28;20184;-71
2023/04/05 02:51:29;;;;;;;0.10;0.10;;;0.30;96.60;;;;;;5051176;28;20191;-71
2023/04/05 02:53:55;;;;;;;0.10;0.10;;;0.20;96.70;;;;;;5050150;28;20207;-71
2023/04/05 02:56:20;;;;;;;0.10;0.10;;;0.20;96.70;;;;;;5047477;28;20567;-72
2023/04/05 02:58:48;;;;;;;0.10;0.10;;;0.30;96.70;;;;;;5059316;28;20272;-72
2023/04/05 03:01:16;;;;;;;0.10;0.10;;;0.30;96.60;;;;;;5051311;28;20192;-72
2023/04/05 03:03:42;;;;;;;0.03;0.03;;;0.30;96.70;;;;;;5060443;28;20174;-72
2023/04/05 03:06:10;;;;;;;0.10;0.10;;;0.30;96.50;;;;;;5054607;28;20685;-72
2023/04/05 03:08:44;;;;;;;2.10;0.40;;;0.30;96.50;;;;;;5055393;28;20195;-72
2023/04/05 03:11:11;;;;;;;0.10;0.10;;;0.30;96.50;;;;;;5048089;28;20277;-72
2023/04/05 03:13:36;;;;;;;0.10;0.10;;;0.30;96.60;;;;;;5056035;28;20187;-72
2023/04/05 03:16:03;;;;;;;0.10;0.10;;;0.40;96.80;;;;;;5048391;28;20178;-72
2023/04/05 03:18:29;;;;;;;0.00;0.00;;;0.30;96.90;;;;;;5056630;28;20183;-73
2023/04/05 03:20:56;;;;;;;0.10;0.10;;;0.40;96.90;;;;;;5054645;28;20183;-72
2023/04/05 03:23:27;;;;;;;0.10;0.10;;;0.40;96.80;;;;;;5049663;28;20259;-73
2023/04/05 03:26:00;;;;;;;0.13;0.13;;;0.40;96.70;;;;;;5055180;28;20211;-72
2023/04/05 03:28:26;;;;;;;0.10;0.10;;;0.40;96.50;;;;;;5049863;28;20203;-72
2023/04/05 03:30:52;;;;;;;0.43;0.30;;;0.30;96.70;;;;;;5051021;28;20183;-72
2023/04/05 03:33:19;;;;;;;0.30;0.30;;;0.40;96.70;;;;;;5052831;28;20180;-72
2023/04/05 03:35:45;;;;;;;0.10;0.10;;;0.40;96.80;;;;;;5053952;28;20706;-73
2023/04/05 03:38:11;;;;;;;0.10;0.10;;;0.40;96.70;;;;;;5052243;28;20180;-72
2023/04/05 03:40:37;;;;;;;0.10;0.10;;;0.40;96.80;;;;;;5051507;28;20183;-72
2023/04/05 03:43:02;;;;;;;0.07;0.07;;;0.40;96.80;;;;;;5055029;28;20180;-72
2023/04/05 03:45:28;;;;;;;0.00;0.00;;;0.50;97.00;;;;;;5052979;28;20195;-71
2023/04/05 03:47:57;;;;;;;0.10;0.10;;;0.50;96.80;;;;;;5055819;28;20231;-71
2023/04/05 03:50:23;;;;;;;0.10;0.10;;;0.50;96.80;;;;;;5051358;28;20218;-72
2023/04/05 03:52:48;;;;;;;0.10;0.10;;;0.50;96.70;;;;;;5054980;28;20745;-72
2023/04/05 03:55:15;;;;;;;0.10;0.10;;;0.50;96.90;;;;;;5050433;28;20179;-72
2023/04/05 03:57:42;;;;;;;0.30;0.30;;;0.40;97.90;;;;;;5053035;28;20184;-72
2023/04/05 04:00:18;;;;;;;0.30;0.30;;;0.40;98.50;;;;;;5048810;28;20186;-72
2023/04/05 04:02:48;;;;;;;0.20;0.20;;;0.40;98.50;;;;;;5054586;28;20183;-72
2023/04/05 04:05:16;;;;;;;0.57;0.10;;;0.40;98.50;;;;;;5049336;28;20257;-73
2023/04/05 04:07:42;;;;;;;0.33;0.33;;;0.30;98.50;;;;;;5050970;28;20200;-74
2023/04/05 04:10:10;;;;;;;0.20;0.20;;;0.30;98.50;;;;;;5049059;28;20661;-76
2023/04/05 04:12:36;;;;;;;0.10;0.10;;;0.30;98.50;;;;;;5053632;28;20570;-75
2023/04/05 04:15:02;;;;;;;0.00;0.00;;;0.40;98.50;;;;;;5053220;28;20580;-76
2023/04/05 04:17:33;;;;;;;0.30;0.30;;;0.30;98.50;;;;;;5047399;28;20199;-75
2023/04/05 04:19:58;;;;;;;0.10;0.10;;;0.30;98.50;;;;;;5052968;28;20220;-75
2023/04/05 04:22:25;;;;;;;0.10;0.10;;;0.40;98.50;;;;;;5053838;28;20198;-76
2023/04/05 04:24:54;;;;;;;0.23;0.23;;;0.30;98.50;;;;;;5052610;28;20175;-75
2023/04/05 04:27:20;;;;;;;0.10;0.10;;;0.30;98.50;;;;;;5052827;28;20276;-74
2023/04/05 04:29:46;;;;;;;0.27;0.27;;;0.30;98.50;;;;;;5049395;28;20188;-75
2023/04/05 04:32:14;;;;;;;0.10;0.10;;;0.30;98.50;;;;;;5053714;28;20178;-75
2023/04/05 04:34:43;;;;;;;0.10;0.10;;;0.30;98.50;;;;;;5054462;28;20183;-76
2023/04/05 04:37:17;;;;;;;0.03;0.03;;;0.30;98.50;;;;;;5061642;28;20200;-76
2023/04/05 04:39:47;;;;;;;0.30;0.30;;;0.30;98.50;;;;;;5062618;28;20183;-76
2023/04/05 04:42:21;;;;;;;0.13;0.13;;;0.30;98.50;;;;;;5047340;28;20649;-77
2023/04/05 04:44:47;;;;;;;0.00;0.00;;;0.30;98.50;;;;;;5085157;28;20785;-78
2023/04/05 04:47:16;;;;;;;0.30;0.30;;;0.30;98.50;;;;;;5054476;28;20207;-77
2023/04/05 04:49:42;;;;;;;0.40;0.40;;;0.30;98.50;;;;;;5085857;28;20717;-80
2023/04/05 04:52:08;;;;;;;0.30;0.30;;;0.30;98.50;;;;;;5059276;28;20255;-79
2023/04/05 04:54:35;;;;;;;0.10;0.10;;;0.30;98.50;;;;;;5051530;28;20188;-77
2023/04/05 04:57:01;;;;;;;0.10;0.10;;;0.30;98.50;;;;;;5054609;28;20704;-80
2023/04/05 04:59:28;;;;;;;0.43;0.43;;;0.30;98.50;;;;;;5057050;28;20191;-81
2023/04/05 05:01:54;;;;;;;0.10;0.10;;;0.40;98.50;;;;;;5050996;28;20811;-78
2023/04/05 05:04:20;;;;;;;0.13;0.13;;;0.40;98.50;;;;;;5054126;28;20274;-74
2023/04/05 05:06:49;;;;;;;0.17;0.17;;;0.40;98.50;;;;;;5055852;28;20199;-74
2023/04/05 05:09:14;;;;;;;0.10;0.00;;;0.40;97.70;;;;;;5051918;28;20241;-76
2023/04/05 05:11:40;;;;;;;0.00;0.00;;;0.40;97.40;;;;;;5056277;28;20609;-74
2023/04/05 05:14:06;;;;;;;0.10;0.10;;;0.40;97.40;;;;;;5052873;28;20179;-74
2023/04/05 05:16:32;;;;;;;0.10;0.10;;;0.40;97.50;;;;;;5058656;28;20186;-74
2023/04/05 05:18:58;;;;;;;0.10;0.10;;;0.40;97.80;;;;;;5061866;28;20557;-75
2023/04/05 05:21:23;;;;;;;0.00;0.00;;;0.40;97.70;;;;;;5059890;28;20184;-75
2023/04/05 05:23:49;;;;;;;0.00;0.00;;;0.40;97.60;;;;;;5056242;28;20652;-75
2023/04/05 05:26:15;;;;;;;0.00;0.00;;;0.40;97.20;;;;;;5052826;28;20186;-74
2023/04/05 05:28:42;;;;;;;0.10;0.10;;;0.40;96.70;;;;;;5061558;28;20192;-75
2023/04/05 05:31:07;;;;;;;0.10;0.10;;;0.40;96.30;;;;;;5057113;28;20172;-74
2023/04/05 05:33:33;;;;;;;0.10;0.10;;;0.50;96.20;;;;;;5060911;28;20189;-74
2023/04/05 05:35:59;;;;;;;0.03;0.03;;;0.50;95.90;;;;;;5055396;28;20211;-75
2023/04/05 05:38:25;;;;;;;0.00;0.00;;;0.60;96.40;;;;;;5059601;28;20189;-74
2023/04/05 05:40:57;;;;;;;0.00;0.00;;;0.80;96.60;;;;;;5056042;28;20259;-75
2023/04/05 05:43:23;;;;;;;0.07;0.07;;;0.80;95.80;;;;;;5057187;28;20183;-73
2023/04/05 05:45:49;;;;;;;0.10;0.10;;;0.80;94.80;;;;;;5055783;28;20191;-74
2023/04/05 05:48:15;;;;;;;0.10;0.10;;;0.80;94.70;;;;;;5060231;28;20215;-74
2023/04/05 05:50:41;;;;;;;0.10;0.10;;;0.80;94.70;;;;;;5059832;28;20171;-74
2023/04/05 05:53:06;;;;;;;0.00;0.00;;;0.90;94.70;;;;;;5052654;28;20195;-74
2023/04/05 05:55:32;;;;;;;0.10;0.10;;;1.00;94.20;;;;;;5055680;28;20259;-75
2023/04/05 05:57:58;;;;;;;1.50;0.20;;;1.10;94.00;;;;;;5058992;28;20215;-76
2023/04/05 06:00:24;;;;;;;0.10;0.10;;;1.20;93.60;;;;;;5054837;28;20179;-74
2023/04/05 06:02:51;;;;;;;0.27;0.27;;;1.40;93.10;;;;;;5057051;28;20272;-76
2023/04/05 06:05:16;;;;;;;0.10;0.10;;;1.40;92.20;;;;;;5056986;28;20205;-76
2023/04/05 06:07:42;;;;;;;0.10;0.10;;;1.40;92.00;;;;;;5053802;28;20203;-75
2023/04/05 06:10:08;;;;;;;0.20;0.20;;;1.50;92.00;;;;;;5058832;28;20203;-75
2023/04/05 06:12:34;;;;;;;0.10;0.10;;;1.50;91.60;;;;;;5056658;28;20199;-75
2023/04/05 06:15:01;;;;;;;0.57;0.10;;;1.70;91.10;;;;;;5055898;28;20222;-75
2023/04/05 06:17:27;;;;;;;0.10;0.10;;;1.70;91.10;;;;;;5058506;28;20263;-76
2023/04/05 06:19:52;;;;;;;0.10;0.10;;;1.70;90.50;;;;;;5057891;28;20825;-76
2023/04/05 06:22:18;;;;;;;0.47;0.20;;;1.80;90.50;;;;;;5055029;28;20179;-75
2023/04/05 06:24:44;;;;;;;0.10;0.10;;;1.90;90.00;;;;;;5055866;28;20211;-75
2023/04/05 06:27:10;;;;;;;0.20;0.20;;;2.00;89.30;;;;;;5054657;28;20326;-75
2023/04/05 06:29:35;;;;;;;0.10;0.10;;;1.80;87.80;;;;;;5061371;28;20211;-75
2023/04/05 06:32:01;;;;;;;0.10;0.10;;;1.80;88.50;;;;;;5055820;28;20183;-75
2023/04/05 06:34:26;;;;;;;0.27;0.20;;;2.00;88.80;;;;;;5054450;28;20411;-75
2023/04/05 06:36:52;;;;;;;0.07;0.07;;;2.00;88.40;;;;;;5053539;28;20186;-75
2023/04/05 06:39:18;;;;;;;0.17;0.17;;;2.10;88.20;;;;;;5053531;28;20270;-75
2023/04/05 06:41:44;;;;;;;0.10;0.10;;;2.20;88.00;;;;;;5054355;28;20168;-75
2023/04/05 06:44:09;;;;;;;0.10;0.10;;;2.40;87.70;;;;;;5057665;28;20653;-75
2023/04/05 06:46:35;;;;;;;0.00;0.00;;;2.60;87.60;;;;;;5052303;28;20583;-75
2023/04/05 06:49:01;;;;;;;0.27;0.27;;;2.60;86.60;;;;;;5055260;28;20179;-75
2023/04/05 06:51:27;;;;;;;0.10;0.10;;;2.70;86.60;;;;;;5052356;28;20196;-75
2023/04/05 06:53:54;;;;;;;0.10;0.10;;;2.80;86.70;;;;;;5050827;28;20180;-74
2023/04/05 06:56:20;;;;;;;0.10;0.10;;;2.90;84.40;;;;;;5058343;28;20284;-75
2023/04/05 06:58:46;;;;;;;0.10;0.10;;;2.90;84.40;;;;;;5056592;28;20182;-75
2023/04/05 07:01:12;;;;;;;0.10;0.10;;;3.00;84.40;;;;;;5053040;28;20171;-74
2023/04/05 07:03:38;;;;;;;0.10;0.10;;;3.00;84.20;;;;;;5050795;28;20691;-74
2023/04/05 07:06:03;;;;;;;0.10;0.10;;;3.00;84.30;;;;;;5056229;28;20219;-74
2023/04/05 07:08:31;;;;;;;1.37;0.20;;;3.10;84.30;;;;;;5053279;28;20357;-75
2023/04/05 07:10:57;;;;;;;0.10;0.10;;;3.10;83.90;;;;;;5052867;28;20243;-75
2023/04/05 07:13:24;;;;;;;1.13;0.13;;;3.20;83.60;;;;;;5058672;28;20669;-74
2023/04/05 07:15:50;;;;;;;0.10;0.10;;;3.30;83.40;;;;;;5056674;28;20212;-74
2023/04/05 07:18:17;;;;;;;0.10;0.10;;;3.10;82.90;;;;;;5054061;28;20186;-75
2023/04/05 07:20:50;;;;;;;0.20;0.20;;;2.90;84.10;;;;;;5055333;28;20633;-74
2023/04/05 07:23:16;;;;;;;0.10;0.10;;;2.90;84.30;;;;;;5055705;28;20170;-75
2023/04/05 07:25:42;;;;;;;0.10;0.10;;;2.80;83.60;;;;;;5056118;28;20237;-74
2023/04/05 07:28:08;;;;;;;0.17;0.17;;;2.70;84.20;;;;;;5057317;28;20207;-75
2023/04/05 07:30:35;;;;;;;3.87;0.13;;;2.80;84.70;;;;;;5053315;28;20234;-74
2023/04/05 07:33:01;;;;;;;0.17;0.17;;;2.90;85.10;;;;;;5057978;28;20171;-75
2023/04/05 07:35:27;;;;;;;0.10;0.10;;;2.90;84.70;;;;;;5056253;28;20183;-75
2023/04/05 07:37:53;;;;;;;0.00;0.00;;;2.80;84.90;;;;;;5051260;28;20576;-75
2023/04/05 07:40:18;;;;;;;0.17;0.17;;;2.90;85.00;;;;;;5053754;28;20310;-75
2023/04/05 07:42:44;;;;;;;0.10;0.10;;;2.80;84.50;;;;;;5060059;28;20179;-75
2023/04/05 07:45:10;;;;;;;0.13;0.13;;;3.00;84.50;;;;;;5060844;28;20246;-74
2023/04/05 07:47:36;;;;;;;0.10;0.10;;;3.00;83.70;;;;;;5054499;28;20222;-75
2023/04/05 07:50:02;;;;;;;0.10;0.10;;;2.90;83.50;;;;;;5055465;28;20178;-75
2023/04/05 07:52:27;;;;;;;0.20;0.20;;;2.80;83.90;;;;;;5053879;28;20571;-77
2023/04/05 07:54:54;;;;;;;0.60;0.13;;;2.80;84.30;;;;;;5058855;28;20176;-74
2023/04/05 07:57:19;;;;;;;0.10;0.10;;;2.80;84.50;;;;;;5055703;28;20560;-74
2023/04/05 07:59:49;;;;;;;0.20;0.20;;;2.80;84.60;;;;;;5059962;28;20188;-76
2023/04/05 08:02:15;;;;;;;0.20;0.20;;;2.70;85.10;;;;;;5054659;28;20191;-75
2023/04/05 08:04:41;;;;;;;0.20;0.20;;;2.80;84.90;;;;;;5047228;28;20179;-75
2023/04/05 08:07:06;;;;;;;0.20;0.20;;;2.70;84.10;;;;;;5047051;28;20301;-75
2023/04/05 08:09:32;;;;;;;0.20;0.20;;;2.70;84.80;;;;;;5050738;28;20226;-74
2023/04/05 08:12:01;;;;;;;0.10;0.10;;;2.50;84.50;;;;;;5050553;28;20188;-75
2023/04/05 08:14:27;;;;;;;0.10;0.10;;;2.40;84.00;;;;;;5051471;28;20237;-75
2023/04/05 08:16:53;;;;;;;0.10;0.10;;;2.20;84.10;;;;;;5061780;28;20617;-75
2023/04/05 08:19:18;;;;;;;0.10;0.10;;;2.20;84.40;;;;;;5054118;28;20171;-75
2023/04/05 08:21:44;;;;;;;0.63;0.10;;;2.10;84.40;;;;;;5050027;28;20184;-75
2023/04/05 08:24:10;;;;;;;0.10;0.10;;;2.10;84.80;;;;;;5055426;28;20175;-75
2023/04/05 08:26:36;;;;;;;0.20;0.20;;;2.10;85.60;;;;;;5057101;28;20679;-74
2023/04/05 08:29:01;;;;;;;0.23;0.23;;;2.20;85.50;;;;;;5056812;28;20186;-74
2023/04/05 08:31:27;;;;;;;0.00;0.00;;;2.30;85.80;;;;;;5056864;28;20179;-75
2023/04/05 08:33:53;;;;;;;0.00;0.00;;;2.40;85.00;;;;;;5056677;28;20668;-75
2023/04/05 08:36:18;;;;;;;0.17;0.17;;;2.40;85.10;;;;;;5050771;28;20260;-74
2023/04/05 08:38:44;;;;;;;0.10;0.10;;;2.60;85.20;;;;;;5057711;28;20616;-74
2023/04/05 08:41:18;;;;;;;0.27;0.27;;;2.70;85.10;;;;;;5052988;28;20180;-75
2023/04/05 08:44:01;;;;;;;0.20;0.20;;;2.90;84.70;;;;;;5050134;28;20604;-74
2023/04/05 08:46:30;;;;;;;0.10;0.10;;;2.90;84.70;;;;;;5054432;28;20270;-73
2023/04/05 08:49:00;;;;;;;0.27;0.20;;;2.90;85.00;;;;;;5059911;28;20253;-74
2023/04/05 08:51:27;;;;;;;0.10;0.10;;;2.70;85.10;;;;;;5055848;28;20190;-74
2023/04/05 08:53:53;;;;;;;0.50;0.10;;;2.60;85.80;;;;;;5054812;28;20176;-75
2023/04/05 08:56:26;;;;;;;0.20;0.17;;;2.60;86.40;;;;;;5053949;28;20207;-75
2023/04/05 08:58:57;;;;;;;0.13;0.13;;;2.70;87.00;;;;;;5052697;28;20652;-75
2023/04/05 09:01:25;;;;;;;0.10;0.10;;;2.80;86.70;;;;;;5051341;28;20271;-75
2023/04/05 09:03:52;;;;;;;0.10;0.10;;;2.90;86.90;;;;;;5053575;28;20182;-75
2023/04/05 09:06:19;;;;;;;0.20;0.20;;;3.00;86.20;;;;;;5057886;28;20180;-76
2023/04/05 09:08:45;;;;;;;0.23;0.23;;;3.20;84.60;;;;;;5056146;28;20231;-75
2023/04/05 09:11:12;;;;;;;0.10;0.10;;;3.20;84.70;;;;;;5054548;28;20187;-75
2023/04/05 09:13:38;;;;;;;0.53;0.20;;;3.20;84.10;;;;;;5058828;28;20576;-76
2023/04/05 09:16:04;;;;;;;0.20;0.20;;;3.00;84.60;;;;;;5052608;28;20175;-75
2023/04/05 09:18:30;;;;;;;0.13;0.13;;;3.00;84.80;;;;;;5063762;28;20190;-75
2023/04/05 09:21:05;;;;;;;0.33;0.33;;;2.90;84.90;;;;;;5057833;28;20186;-75
2023/04/05 09:23:33;;;;;;;0.17;0.17;;;3.00;85.50;;;;;;5058492;28;20292;-76
2023/04/05 09:25:59;;;;;;;0.10;0.10;;;3.10;84.50;;;;;;5052448;28;20172;-75
2023/04/05 09:28:43;;;;;;;0.17;0.17;;;3.20;84.30;;;;;;5058284;28;20214;-75
2023/04/05 09:31:09;;;;;;;0.30;0.30;;;3.50;84.30;;;;;;5056333;28;20221;-74
2023/04/05 09:33:35;;;;;;;0.20;0.20;;;3.70;83.60;;;;;;5062389;28;20179;-75
2023/04/05 09:36:01;;;;;;;0.10;0.10;;;3.80;82.60;;;;;;5053708;28;20637;-74
2023/04/05 09:38:46;;;;;;;0.20;0.20;;;4.00;82.30;;;;;;5057617;28;20180;-75
2023/04/05 09:41:12;;;;;;;0.17;0.17;;;4.10;81.50;;;;;;5052699;28;20593;-74
2023/04/05 09:43:39;;;;;;;0.10;0.10;;;4.20;80.90;;;;;;5060312;28;20207;-74
2023/04/05 09:46:05;;;;;;;0.30;0.10;;;4.40;80.90;;;;;;5055161;28;20199;-75
2023/04/05 09:48:50;;;;;;;0.10;0.10;;;4.40;80.20;;;;;;5055306;28;20286;-75
2023/04/05 09:51:17;;;;;;;0.23;0.23;;;4.50;79.70;;;;;;5050305;28;20187;-75
2023/04/05 09:54:02;;;;;;;0.43;0.30;;;4.50;80.20;;;;;;5060280;28;20688;-75
2023/04/05 09:56:30;;;;;;;0.17;0.17;;;4.60;79.60;;;;;;5051012;28;20186;-75
2023/04/05 09:59:09;;;;;;;0.97;0.20;;;4.50;79.10;;;;;;5054864;28;20176;-75
2023/04/05 10:01:37;;;;;;;0.20;0.20;;;4.60;79.40;;;;;;5054172;28;20206;-75
2023/04/05 10:04:02;;;;;;;0.20;0.20;;;4.70;78.50;;;;;;5059641;28;20175;-74
2023/04/05 10:06:35;;;;;;;0.27;0.27;;;4.70;77.80;;;;;;5059463;28;20179;-75
2023/04/05 10:09:01;;;;;;;0.23;0.23;;;4.20;77.70;;;;;;5055396;28;20552;-75
2023/04/05 10:11:27;;;;;;;0.13;0.13;;;4.20;78.50;;;;;;5052220;28;20179;-74
2023/04/05 10:13:53;;;;;;;0.30;0.30;;;4.30;78.30;;;;;;5050291;28;20176;-75
2023/04/05 10:16:23;;;;;;;0.20;0.20;;;4.60;78.40;;;;;;5049712;28;20179;-75
2023/04/05 10:18:51;;;;;;;0.30;0.30;;;5.00;76.60;;;;;;5053834;28;20820;-75
2023/04/05 10:21:28;;;;;;;0.30;0.30;;;5.20;75.40;;;;;;5058414;28;20183;-76
2023/04/05 10:24:08;;;;;;;0.20;0.20;;;5.40;74.70;;;;;;5059097;28;20179;-76
2023/04/05 10:26:50;;;;;;;0.47;0.40;;;5.30;73.80;;;;;;5049366;28;20824;-75
2023/04/05 10:29:28;;;;;;;0.40;0.40;;;4.80;74.40;;;;;;5053337;28;20202;-76
2023/04/05 10:32:10;;;;;;;0.50;0.50;;;4.80;75.10;;;;;;5052085;28;20555;-79
2023/04/05 10:34:47;;;;;;;0.40;0.30;;;4.80;75.30;;;;;;5053815;28;20183;-78
2023/04/05 10:37:34;;;;;;;0.30;0.27;;;5.00;75.30;;;;;;5053649;28;20182;-79
2023/04/05 10:40:03;;;;;;;0.13;0.13;;;5.10;74.70;;;;;;5053381;28;20189;-80
2023/04/05 10:42:42;;;;;;;0.30;0.30;;;5.10;74.00;;;;;;5057648;28;20179;-80
2023/04/05 10:45:14;;;;;;;0.30;0.30;;;5.00;74.30;;;;;;5047432;28;20233;-79
2023/04/05 10:48:24;;;;;;;0.20;0.20;;;5.00;74.20;;;;;;5054804;28;20219;-80
2023/04/05 10:50:50;;;;;;;0.73;0.40;;;4.70;74.30;;;;;;5014774;28;20199;-78
2023/04/05 10:53:17;;;;;;;0.30;0.30;;;4.70;75.30;;;;;;4997952;28;20266;-75
2023/04/05 10:55:44;;;;;;;0.20;0.20;;;4.90;75.80;;;;;;5013455;28;20271;-75
2023/04/05 10:58:13;;;;;;;0.37;0.30;;;5.00;75.80;;;;;;4985305;28;20201;-75
2023/04/05 11:00:40;;;;;;;0.30;0.30;;;5.10;74.80;;;;;;4997705;28;20390;-76
2023/04/05 11:03:06;;;;;;;0.37;0.37;;;5.10;74.90;;;;;;5000230;28;20303;-76
2023/04/05 11:05:33;;;;;;;0.20;0.20;;;5.00;74.50;;;;;;5005614;28;20270;-77
2023/04/05 11:08:03;;;;;;;0.30;0.30;;;4.70;75.10;;;;;;5005103;28;20832;-77
2023/04/05 11:10:29;;;;;;;0.20;0.20;;;4.80;75.50;;;;;;5008345;28;20258;-76
2023/04/05 11:12:55;;;;;;;0.37;0.37;;;4.90;74.80;;;;;;4996261;28;20216;-77
2023/04/05 11:15:29;;;;;;;0.10;0.10;;;4.90;74.80;;;;;;4981989;28;20332;-75
2023/04/05 11:18:19;;;;;;;0.40;0.30;;;4.80;74.90;;;;;;5000311;28;20220;-76
2023/04/05 11:20:51;;;;;;;0.27;0.27;;;4.80;74.90;;;;;;4996246;28;20244;-77
2023/04/05 11:23:19;;;;;;;0.40;0.40;;;5.00;75.30;;;;;;5001115;28;20630;-76
2023/04/05 11:25:49;;;;;;;0.20;0.20;;;4.90;74.40;;;;;;4999263;28;20611;-77
2023/04/05 11:28:23;;;;;;;5.20;0.50;;;4.90;74.40;;;;;;5021816;28;20239;-77
2023/04/05 11:30:55;;;;;;;0.37;0.33;;;5.00;74.90;;;;;;5044906;28;20206;-75
2023/04/05 11:33:45;;;;;;;0.30;0.30;;;5.00;74.60;;;;;;5049222;28;20171;-75
2023/04/05 11:36:12;;;;;;;0.60;0.40;;;;;;;;;;5053219;28;20236;-76
2023/04/05 11:38:39;;;;;;;0.20;0.20;;;5.10;74.80;;;;;;5044396;28;20256;-76
2023/04/05 11:41:06;;;;;;;0.20;0.20;;;5.20;74.50;;;;;;5049341;28;20240;-75
2023/04/05 11:43:34;;;;;;;0.23;0.23;;;5.40;74.50;;;;;;5047023;28;20849;-75
2023/04/05 11:46:02;;;;;;;0.40;0.40;;;5.50;74.00;;;;;;5049820;28;20215;-76
2023/04/05 11:48:28;;;;;;;0.20;0.20;;;5.50;73.50;;;;;;5049501;28;20207;-76
2023/04/05 11:50:56;;;;;;;0.40;0.40;;;5.70;73.00;;;;;;5051326;28;20270;-75
2023/04/05 11:53:22;;;;;;;0.57;0.57;;;5.80;73.20;;;;;;5055905;28;20233;-76
2023/04/05 11:55:50;;;;;;;0.43;0.43;;;6.00;72.40;;;;;;5049542;28;20607;-76
2023/04/05 11:58:24;;;;;;;0.40;0.40;;;5.90;72.20;;;;;;5051577;28;20180;-76
2023/04/05 12:01:00;;;;;;;2.43;0.50;;;5.70;72.20;;;;;;5051244;28;20182;-76
2023/04/05 12:03:30;;;;;;;0.30;0.30;;;5.50;73.20;;;;;;5054069;28;20183;-76
2023/04/05 12:06:00;;;;;;;0.50;0.50;;;5.30;73.60;;;;;;5055368;28;20167;-76
2023/04/05 12:08:48;;;;;;;1.40;0.50;;;5.40;73.80;;;;;;5051924;28;20211;-76
2023/04/05 12:11:15;;;;;;;0.60;0.60;;;5.80;73.90;;;;;;5052528;28;20180;-76
2023/04/05 12:13:40;;;;;;;0.30;0.30;;;5.80;73.90;;;;;;5050547;28;20575;-81
2023/04/05 12:16:08;;;;;;;0.40;0.40;;;5.70;73.00;;;;;;5049566;28;20187;-79
2023/04/05 12:18:37;;;;;;;0.40;0.40;;;5.80;73.90;;;;;;5054688;28;20183;-77
2023/04/05 12:21:12;;;;;;;0.70;0.57;;;5.90;74.00;;;;;;5055136;28;20202;-77
2023/04/05 12:23:38;;;;;;;0.57;0.57;;;6.30;73.90;;;;;;5053019;28;20232;-76
2023/04/05 12:26:06;;;;;;;0.70;0.50;;;6.70;72.80;;;;;;5037068;28;20202;-77
2023/04/05 12:28:59;;;;;;;0.50;0.50;;;6.50;71.80;;;;;;5042629;28;20253;-78
2023/04/05 12:31:45;;;;;;;0.67;0.67;;;6.60;72.50;;;;;;5072930;28;21546;-77
2023/04/05 12:34:12;;;;;;;1.10;0.93;;;6.80;72.30;;;;;;5044103;28;20211;-78
2023/04/05 12:36:42;;;;;;;0.60;0.60;;;6.90;71.60;;;;;;5044280;28;20218;-78
2023/04/05 12:39:09;;;;;;;1.00;1.00;;;6.90;71.50;;;;;;5042713;28;20241;-78
2023/04/05 12:41:36;;;;;;;0.60;0.60;;;6.90;71.70;;;;;;5039737;28;20208;-78
2023/04/05 12:44:11;;;;;;;0.53;0.53;;;6.90;71.70;;;;;;5037667;28;20211;-78
2023/04/05 12:46:46;;;;;;;0.57;0.57;;;6.90;71.80;;;;;;5040119;28;20840;-76
2023/04/05 12:49:15;;;;;;;0.83;0.83;;;6.50;71.80;;;;;;5045714;28;20214;-76
2023/04/05 12:51:47;;;;;;;2.13;0.80;;;6.50;72.40;;;;;;5045074;28;20253;-76
2023/04/05 12:54:14;;;;;;;0.70;0.70;;;6.50;72.10;;;;;;5046923;28;20230;-77
2023/04/05 12:56:41;;;;;;;1.30;0.77;;;6.30;72.40;;;;;;5044377;28;20680;-78
2023/04/05 12:59:06;;;;;;;0.93;0.87;;;6.20;72.00;;;;;;5051874;28;20272;-77
2023/04/05 13:01:33;;;;;;;1.00;1.00;;;6.10;72.30;;;;;;5044995;28;20203;-77
2023/04/05 13:04:00;;;;;;;0.60;0.60;;;6.00;72.10;;;;;;5049467;28;20230;-77